sensor_id;sensor_type;location;lat;lon;timestamp;P1;durP1;ratioP1;P2;durP2;ratioP2
20399;SDS011;10359;53.596;22.520;2022-12-11T00:00:14;23.37;;;9.53;;
20399;SDS011;10359;53.596;22.520;2022-12-11T00:03:06;20.17;;;9.57;;
20399;SDS011;10359;53.596;22.520;2022-12-11T00:06:04;20.53;;;10.13;;
20399;SDS011;10359;53.596;22.520;2022-12-11T00:08:54;20.83;;;10.07;;
20399;SDS011;10359;53.596;22.520;2022-12-11T00:11:44;22.50;;;10.37;;
20399;SDS011;10359;53.596;22.520;2022-12-11T00:14:34;16.27;;;9.00;;
20399;SDS011;10359;53.596;22.520;2022-12-11T00:17:24;19.97;;;8.87;;
20399;SDS011;10359;53.596;22.520;2022-12-11T00:20:15;18.53;;;9.37;;
20399;SDS011;10359;53.596;22.520;2022-12-11T00:23:04;21.40;;;9.17;;
20399;SDS011;10359;53.596;22.520;2022-12-11T00:25:54;17.83;;;8.03;;
20399;SDS011;10359;53.596;22.520;2022-12-11T00:28:44;25.47;;;10.33;;
20399;SDS011;10359;53.596;22.520;2022-12-11T00:31:34;24.63;;;10.93;;
20399;SDS011;10359;53.596;22.520;2022-12-11T00:34:24;25.37;;;11.73;;
20399;SDS011;10359;53.596;22.520;2022-12-11T00:37:15;21.93;;;10.67;;
20399;SDS011;10359;53.596;22.520;2022-12-11T00:40:05;23.80;;;11.70;;
20399;SDS011;10359;53.596;22.520;2022-12-11T00:42:56;22.63;;;10.87;;
20399;SDS011;10359;53.596;22.520;2022-12-11T00:45:45;28.00;;;11.00;;
20399;SDS011;10359;53.596;22.520;2022-12-11T00:48:35;25.37;;;11.70;;
20399;SDS011;10359;53.596;22.520;2022-12-11T00:51:25;27.33;;;11.33;;
20399;SDS011;10359;53.596;22.520;2022-12-11T00:54:17;20.60;;;9.10;;
20399;SDS011;10359;53.596;22.520;2022-12-11T00:57:06;26.47;;;11.80;;
20399;SDS011;10359;53.596;22.520;2022-12-11T00:59:56;25.93;;;11.17;;
20399;SDS011;10359;53.596;22.520;2022-12-11T01:02:45;24.07;;;11.83;;
20399;SDS011;10359;53.596;22.520;2022-12-11T01:05:35;25.40;;;10.23;;
20399;SDS011;10359;53.596;22.520;2022-12-11T01:08:25;27.77;;;11.57;;
20399;SDS011;10359;53.596;22.520;2022-12-11T01:11:21;24.40;;;11.07;;
20399;SDS011;10359;53.596;22.520;2022-12-11T01:14:11;24.03;;;10.57;;
20399;SDS011;10359;53.596;22.520;2022-12-11T01:17:02;25.03;;;10.43;;
20399;SDS011;10359;53.596;22.520;2022-12-11T01:19:52;25.57;;;10.80;;
20399;SDS011;10359;53.596;22.520;2022-12-11T01:22:42;20.77;;;9.23;;
20399;SDS011;10359;53.596;22.520;2022-12-11T01:25:31;19.73;;;9.40;;
20399;SDS011;10359;53.596;22.520;2022-12-11T01:28:27;19.07;;;9.33;;
20399;SDS011;10359;53.596;22.520;2022-12-11T01:31:17;24.17;;;11.20;;
20399;SDS011;10359;53.596;22.520;2022-12-11T01:34:08;29.10;;;11.70;;
20399;SDS011;10359;53.596;22.520;2022-12-11T01:36:57;25.43;;;11.47;;
20399;SDS011;10359;53.596;22.520;2022-12-11T01:39:48;23.67;;;10.47;;
20399;SDS011;10359;53.596;22.520;2022-12-11T01:42:37;22.80;;;11.30;;
20399;SDS011;10359;53.596;22.520;2022-12-11T01:45:41;30.03;;;11.77;;
20399;SDS011;10359;53.596;22.520;2022-12-11T01:48:32;27.00;;;11.53;;
20399;SDS011;10359;53.596;22.520;2022-12-11T01:51:28;25.53;;;11.73;;
20399;SDS011;10359;53.596;22.520;2022-12-11T01:54:21;25.50;;;12.17;;
20399;SDS011;10359;53.596;22.520;2022-12-11T01:57:12;25.83;;;12.23;;
20399;SDS011;10359;53.596;22.520;2022-12-11T02:00:04;32.13;;;13.23;;
20399;SDS011;10359;53.596;22.520;2022-12-11T02:02:56;24.00;;;10.93;;
20399;SDS011;10359;53.596;22.520;2022-12-11T02:05:45;27.50;;;12.17;;
20399;SDS011;10359;53.596;22.520;2022-12-11T02:08:35;25.60;;;12.33;;
20399;SDS011;10359;53.596;22.520;2022-12-11T02:11:26;26.00;;;13.33;;
20399;SDS011;10359;53.596;22.520;2022-12-11T02:14:25;27.80;;;11.83;;
20399;SDS011;10359;53.596;22.520;2022-12-11T02:17:21;30.10;;;13.27;;
20399;SDS011;10359;53.596;22.520;2022-12-11T02:20:24;28.70;;;11.77;;
20399;SDS011;10359;53.596;22.520;2022-12-11T02:23:24;26.20;;;11.87;;
20399;SDS011;10359;53.596;22.520;2022-12-11T02:30:02;26.37;;;11.40;;
20399;SDS011;10359;53.596;22.520;2022-12-11T02:32:56;27.10;;;12.10;;
20399;SDS011;10359;53.596;22.520;2022-12-11T02:35:49;28.27;;;12.90;;
20399;SDS011;10359;53.596;22.520;2022-12-11T02:38:40;27.53;;;12.37;;
20399;SDS011;10359;53.596;22.520;2022-12-11T02:41:36;28.50;;;11.90;;
20399;SDS011;10359;53.596;22.520;2022-12-11T02:44:28;32.47;;;13.10;;
20399;SDS011;10359;53.596;22.520;2022-12-11T02:47:22;24.47;;;11.67;;
20399;SDS011;10359;53.596;22.520;2022-12-11T02:50:16;27.47;;;11.83;;
20399;SDS011;10359;53.596;22.520;2022-12-11T02:53:09;30.80;;;12.50;;
20399;SDS011;10359;53.596;22.520;2022-12-11T02:56:00;25.37;;;12.03;;
20399;SDS011;10359;53.596;22.520;2022-12-11T02:58:54;22.90;;;11.13;;
20399;SDS011;10359;53.596;22.520;2022-12-11T03:01:47;28.10;;;11.60;;
20399;SDS011;10359;53.596;22.520;2022-12-11T03:04:38;25.07;;;12.33;;
20399;SDS011;10359;53.596;22.520;2022-12-11T03:07:30;25.07;;;11.63;;
20399;SDS011;10359;53.596;22.520;2022-12-11T03:10:22;23.17;;;10.27;;
20399;SDS011;10359;53.596;22.520;2022-12-11T03:13:12;19.90;;;10.10;;
20399;SDS011;10359;53.596;22.520;2022-12-11T03:16:07;20.33;;;9.37;;
20399;SDS011;10359;53.596;22.520;2022-12-11T03:19:07;21.67;;;10.10;;
20399;SDS011;10359;53.596;22.520;2022-12-11T03:22:05;20.77;;;10.57;;
20399;SDS011;10359;53.596;22.520;2022-12-11T03:24:59;22.63;;;9.60;;
20399;SDS011;10359;53.596;22.520;2022-12-11T03:27:52;21.33;;;10.57;;
20399;SDS011;10359;53.596;22.520;2022-12-11T03:30:47;22.33;;;10.33;;
20399;SDS011;10359;53.596;22.520;2022-12-11T03:33:39;23.23;;;10.50;;
20399;SDS011;10359;53.596;22.520;2022-12-11T03:36:32;24.43;;;11.83;;
20399;SDS011;10359;53.596;22.520;2022-12-11T03:39:26;21.10;;;9.97;;
20399;SDS011;10359;53.596;22.520;2022-12-11T03:42:19;23.13;;;10.53;;
20399;SDS011;10359;53.596;22.520;2022-12-11T03:45:10;19.60;;;9.67;;
20399;SDS011;10359;53.596;22.520;2022-12-11T03:48:02;22.73;;;10.57;;
20399;SDS011;10359;53.596;22.520;2022-12-11T03:50:53;26.83;;;12.00;;
20399;SDS011;10359;53.596;22.520;2022-12-11T03:53:46;15.70;;;8.27;;
20399;SDS011;10359;53.596;22.520;2022-12-11T03:56:37;15.80;;;8.13;;
20399;SDS011;10359;53.596;22.520;2022-12-11T03:59:29;18.33;;;8.40;;
20399;SDS011;10359;53.596;22.520;2022-12-11T04:02:18;16.40;;;8.50;;
20399;SDS011;10359;53.596;22.520;2022-12-11T04:05:08;17.43;;;8.07;;
20399;SDS011;10359;53.596;22.520;2022-12-11T04:07:59;13.50;;;7.10;;
20399;SDS011;10359;53.596;22.520;2022-12-11T04:10:49;12.97;;;7.30;;
20399;SDS011;10359;53.596;22.520;2022-12-11T04:14:02;17.20;;;8.63;;
20399;SDS011;10359;53.596;22.520;2022-12-11T04:17:20;20.67;;;8.67;;
20399;SDS011;10359;53.596;22.520;2022-12-11T04:20:23;17.93;;;8.40;;
20399;SDS011;10359;53.596;22.520;2022-12-11T04:23:29;22.30;;;9.27;;
20399;SDS011;10359;53.596;22.520;2022-12-11T04:26:36;18.37;;;9.30;;
20399;SDS011;10359;53.596;22.520;2022-12-11T04:29:27;19.20;;;8.07;;
20399;SDS011;10359;53.596;22.520;2022-12-11T04:32:16;15.47;;;7.97;;
20399;SDS011;10359;53.596;22.520;2022-12-11T04:35:06;13.50;;;7.00;;
20399;SDS011;10359;53.596;22.520;2022-12-11T04:37:57;12.80;;;7.10;;
20399;SDS011;10359;53.596;22.520;2022-12-11T04:40:47;13.77;;;6.83;;
20399;SDS011;10359;53.596;22.520;2022-12-11T04:43:36;13.07;;;6.47;;
20399;SDS011;10359;53.596;22.520;2022-12-11T04:46:27;14.20;;;7.50;;
20399;SDS011;10359;53.596;22.520;2022-12-11T04:49:17;13.43;;;7.03;;
20399;SDS011;10359;53.596;22.520;2022-12-11T04:52:06;18.57;;;8.00;;
20399;SDS011;10359;53.596;22.520;2022-12-11T04:54:56;12.87;;;6.37;;
20399;SDS011;10359;53.596;22.520;2022-12-11T04:57:45;19.13;;;7.93;;
20399;SDS011;10359;53.596;22.520;2022-12-11T05:00:34;16.57;;;7.53;;
20399;SDS011;10359;53.596;22.520;2022-12-11T05:03:25;16.20;;;7.70;;
20399;SDS011;10359;53.596;22.520;2022-12-11T05:06:14;17.10;;;7.63;;
20399;SDS011;10359;53.596;22.520;2022-12-11T05:09:04;14.40;;;7.83;;
20399;SDS011;10359;53.596;22.520;2022-12-11T05:11:54;16.83;;;7.90;;
20399;SDS011;10359;53.596;22.520;2022-12-11T05:14:44;14.53;;;7.80;;
20399;SDS011;10359;53.596;22.520;2022-12-11T05:17:33;15.57;;;7.50;;
20399;SDS011;10359;53.596;22.520;2022-12-11T05:20:24;17.20;;;8.13;;
20399;SDS011;10359;53.596;22.520;2022-12-11T05:23:13;17.63;;;7.97;;
20399;SDS011;10359;53.596;22.520;2022-12-11T05:26:03;15.37;;;7.17;;
20399;SDS011;10359;53.596;22.520;2022-12-11T05:28:56;13.60;;;6.83;;
20399;SDS011;10359;53.596;22.520;2022-12-11T05:31:45;14.27;;;7.07;;
20399;SDS011;10359;53.596;22.520;2022-12-11T05:34:35;13.13;;;7.03;;
20399;SDS011;10359;53.596;22.520;2022-12-11T05:37:26;14.37;;;7.00;;
20399;SDS011;10359;53.596;22.520;2022-12-11T05:40:15;15.37;;;7.10;;
20399;SDS011;10359;53.596;22.520;2022-12-11T05:43:05;15.30;;;7.83;;
20399;SDS011;10359;53.596;22.520;2022-12-11T05:46:03;15.93;;;7.87;;
20399;SDS011;10359;53.596;22.520;2022-12-11T05:48:57;11.47;;;7.13;;
20399;SDS011;10359;53.596;22.520;2022-12-11T05:51:47;15.47;;;7.93;;
20399;SDS011;10359;53.596;22.520;2022-12-11T05:54:38;14.53;;;7.27;;
20399;SDS011;10359;53.596;22.520;2022-12-11T05:57:28;15.10;;;6.90;;
20399;SDS011;10359;53.596;22.520;2022-12-11T06:00:17;15.13;;;7.17;;
20399;SDS011;10359;53.596;22.520;2022-12-11T06:03:07;17.73;;;7.93;;
20399;SDS011;10359;53.596;22.520;2022-12-11T06:05:56;15.67;;;7.90;;
20399;SDS011;10359;53.596;22.520;2022-12-11T06:08:49;16.43;;;7.80;;
20399;SDS011;10359;53.596;22.520;2022-12-11T06:11:40;14.80;;;7.83;;
20399;SDS011;10359;53.596;22.520;2022-12-11T06:14:32;13.03;;;7.33;;
20399;SDS011;10359;53.596;22.520;2022-12-11T06:17:21;18.70;;;8.00;;
20399;SDS011;10359;53.596;22.520;2022-12-11T06:20:11;15.20;;;8.50;;
20399;SDS011;10359;53.596;22.520;2022-12-11T06:23:13;18.63;;;8.07;;
20399;SDS011;10359;53.596;22.520;2022-12-11T06:26:02;16.60;;;7.40;;
20399;SDS011;10359;53.596;22.520;2022-12-11T06:28:54;20.53;;;8.70;;
20399;SDS011;10359;53.596;22.520;2022-12-11T06:31:49;17.83;;;8.03;;
20399;SDS011;10359;53.596;22.520;2022-12-11T06:34:43;12.70;;;6.83;;
20399;SDS011;10359;53.596;22.520;2022-12-11T06:37:34;15.30;;;7.60;;
20399;SDS011;10359;53.596;22.520;2022-12-11T06:40:24;15.60;;;7.87;;
20399;SDS011;10359;53.596;22.520;2022-12-11T06:43:14;17.23;;;7.73;;
20399;SDS011;10359;53.596;22.520;2022-12-11T06:46:05;18.20;;;8.63;;
20399;SDS011;10359;53.596;22.520;2022-12-11T06:48:56;15.57;;;7.10;;
20399;SDS011;10359;53.596;22.520;2022-12-11T06:51:45;13.40;;;7.77;;
20399;SDS011;10359;53.596;22.520;2022-12-11T06:54:34;14.47;;;7.90;;
20399;SDS011;10359;53.596;22.520;2022-12-11T06:57:23;14.30;;;7.87;;
20399;SDS011;10359;53.596;22.520;2022-12-11T07:00:13;17.03;;;8.27;;
20399;SDS011;10359;53.596;22.520;2022-12-11T07:03:04;16.13;;;7.40;;
20399;SDS011;10359;53.596;22.520;2022-12-11T07:05:58;15.87;;;7.77;;
20399;SDS011;10359;53.596;22.520;2022-12-11T07:08:49;16.87;;;7.77;;
20399;SDS011;10359;53.596;22.520;2022-12-11T07:11:38;14.93;;;7.47;;
20399;SDS011;10359;53.596;22.520;2022-12-11T07:14:28;14.97;;;6.90;;
20399;SDS011;10359;53.596;22.520;2022-12-11T07:17:17;17.03;;;8.13;;
20399;SDS011;10359;53.596;22.520;2022-12-11T07:20:09;15.60;;;8.27;;
20399;SDS011;10359;53.596;22.520;2022-12-11T07:22:58;16.47;;;7.50;;
20399;SDS011;10359;53.596;22.520;2022-12-11T07:25:47;14.43;;;7.67;;
20399;SDS011;10359;53.596;22.520;2022-12-11T07:28:37;16.13;;;7.63;;
20399;SDS011;10359;53.596;22.520;2022-12-11T07:31:27;18.20;;;7.73;;
20399;SDS011;10359;53.596;22.520;2022-12-11T07:34:17;16.23;;;7.47;;
20399;SDS011;10359;53.596;22.520;2022-12-11T07:37:08;11.73;;;6.80;;
20399;SDS011;10359;53.596;22.520;2022-12-11T07:39:57;12.63;;;6.73;;
20399;SDS011;10359;53.596;22.520;2022-12-11T07:42:47;13.33;;;6.27;;
20399;SDS011;10359;53.596;22.520;2022-12-11T07:45:36;16.37;;;7.93;;
20399;SDS011;10359;53.596;22.520;2022-12-11T07:48:28;15.83;;;7.83;;
20399;SDS011;10359;53.596;22.520;2022-12-11T07:51:19;13.43;;;7.03;;
20399;SDS011;10359;53.596;22.520;2022-12-11T07:54:14;12.53;;;6.80;;
20399;SDS011;10359;53.596;22.520;2022-12-11T07:57:03;15.03;;;7.23;;
20399;SDS011;10359;53.596;22.520;2022-12-11T08:00:00;11.87;;;5.97;;
20399;SDS011;10359;53.596;22.520;2022-12-11T08:02:49;16.23;;;7.90;;
20399;SDS011;10359;53.596;22.520;2022-12-11T08:05:38;15.27;;;7.17;;
20399;SDS011;10359;53.596;22.520;2022-12-11T08:08:28;16.10;;;7.00;;
20399;SDS011;10359;53.596;22.520;2022-12-11T08:11:18;16.30;;;7.23;;
20399;SDS011;10359;53.596;22.520;2022-12-11T08:14:08;13.10;;;6.97;;
20399;SDS011;10359;53.596;22.520;2022-12-11T08:17:00;13.80;;;7.37;;
20399;SDS011;10359;53.596;22.520;2022-12-11T08:19:53;15.87;;;8.30;;
20399;SDS011;10359;53.596;22.520;2022-12-11T08:22:45;18.17;;;8.37;;
20399;SDS011;10359;53.596;22.520;2022-12-11T08:25:34;20.70;;;8.33;;
20399;SDS011;10359;53.596;22.520;2022-12-11T08:28:25;21.77;;;9.03;;
20399;SDS011;10359;53.596;22.520;2022-12-11T08:31:15;17.77;;;8.97;;
20399;SDS011;10359;53.596;22.520;2022-12-11T08:34:15;19.40;;;9.33;;
20399;SDS011;10359;53.596;22.520;2022-12-11T08:37:04;19.03;;;9.23;;
20399;SDS011;10359;53.596;22.520;2022-12-11T08:39:57;23.03;;;10.63;;
20399;SDS011;10359;53.596;22.520;2022-12-11T08:42:49;20.23;;;9.73;;
20399;SDS011;10359;53.596;22.520;2022-12-11T08:45:41;21.00;;;10.57;;
20399;SDS011;10359;53.596;22.520;2022-12-11T08:48:31;24.37;;;11.20;;
20399;SDS011;10359;53.596;22.520;2022-12-11T08:51:21;20.40;;;9.93;;
20399;SDS011;10359;53.596;22.520;2022-12-11T08:54:12;24.90;;;10.77;;
20399;SDS011;10359;53.596;22.520;2022-12-11T08:57:04;22.23;;;11.33;;
20399;SDS011;10359;53.596;22.520;2022-12-11T08:59:56;23.53;;;10.87;;
20399;SDS011;10359;53.596;22.520;2022-12-11T09:02:51;26.57;;;10.60;;
20399;SDS011;10359;53.596;22.520;2022-12-11T09:05:42;23.87;;;11.23;;
20399;SDS011;10359;53.596;22.520;2022-12-11T09:08:42;25.67;;;10.67;;
20399;SDS011;10359;53.596;22.520;2022-12-11T09:11:39;24.30;;;11.50;;
20399;SDS011;10359;53.596;22.520;2022-12-11T09:14:29;21.43;;;10.53;;
20399;SDS011;10359;53.596;22.520;2022-12-11T09:17:19;17.67;;;8.63;;
20399;SDS011;10359;53.596;22.520;2022-12-11T09:20:11;25.27;;;11.17;;
20399;SDS011;10359;53.596;22.520;2022-12-11T09:23:01;22.03;;;10.33;;
20399;SDS011;10359;53.596;22.520;2022-12-11T09:25:50;19.03;;;10.53;;
20399;SDS011;10359;53.596;22.520;2022-12-11T09:28:43;22.80;;;9.07;;
20399;SDS011;10359;53.596;22.520;2022-12-11T09:31:33;18.77;;;9.43;;
20399;SDS011;10359;53.596;22.520;2022-12-11T09:34:24;18.23;;;8.60;;
20399;SDS011;10359;53.596;22.520;2022-12-11T09:37:17;14.40;;;8.50;;
20399;SDS011;10359;53.596;22.520;2022-12-11T09:40:08;15.73;;;7.73;;
20399;SDS011;10359;53.596;22.520;2022-12-11T09:43:01;19.00;;;8.33;;
20399;SDS011;10359;53.596;22.520;2022-12-11T09:45:56;18.70;;;8.57;;
20399;SDS011;10359;53.596;22.520;2022-12-11T09:48:50;17.10;;;8.30;;
20399;SDS011;10359;53.596;22.520;2022-12-11T09:51:40;17.90;;;8.67;;
20399;SDS011;10359;53.596;22.520;2022-12-11T09:54:35;14.60;;;8.27;;
20399;SDS011;10359;53.596;22.520;2022-12-11T09:57:34;18.17;;;9.00;;
20399;SDS011;10359;53.596;22.520;2022-12-11T10:00:31;19.67;;;9.90;;
20399;SDS011;10359;53.596;22.520;2022-12-11T10:03:31;18.17;;;8.90;;
20399;SDS011;10359;53.596;22.520;2022-12-11T10:06:37;19.47;;;10.00;;
20399;SDS011;10359;53.596;22.520;2022-12-11T10:09:33;22.97;;;13.23;;
20399;SDS011;10359;53.596;22.520;2022-12-11T10:12:32;18.43;;;10.50;;
20399;SDS011;10359;53.596;22.520;2022-12-11T10:15:42;17.97;;;10.23;;
20399;SDS011;10359;53.596;22.520;2022-12-11T10:18:40;20.57;;;10.20;;
20399;SDS011;10359;53.596;22.520;2022-12-11T10:21:32;19.97;;;10.30;;
20399;SDS011;10359;53.596;22.520;2022-12-11T10:24:41;19.60;;;10.17;;
20399;SDS011;10359;53.596;22.520;2022-12-11T10:27:52;21.37;;;9.97;;
20399;SDS011;10359;53.596;22.520;2022-12-11T10:30:44;19.53;;;10.57;;
20399;SDS011;10359;53.596;22.520;2022-12-11T10:33:40;17.20;;;9.30;;
20399;SDS011;10359;53.596;22.520;2022-12-11T10:36:41;16.93;;;8.23;;
20399;SDS011;10359;53.596;22.520;2022-12-11T10:39:31;21.07;;;9.83;;
20399;SDS011;10359;53.596;22.520;2022-12-11T10:42:22;15.73;;;9.23;;
20399;SDS011;10359;53.596;22.520;2022-12-11T10:45:14;16.23;;;9.23;;
20399;SDS011;10359;53.596;22.520;2022-12-11T10:48:04;17.07;;;8.90;;
20399;SDS011;10359;53.596;22.520;2022-12-11T10:50:59;16.97;;;9.03;;
20399;SDS011;10359;53.596;22.520;2022-12-11T10:53:50;15.10;;;9.20;;
20399;SDS011;10359;53.596;22.520;2022-12-11T10:56:40;15.73;;;9.43;;
20399;SDS011;10359;53.596;22.520;2022-12-11T10:59:35;15.13;;;8.13;;
20399;SDS011;10359;53.596;22.520;2022-12-11T11:02:27;18.80;;;8.63;;
20399;SDS011;10359;53.596;22.520;2022-12-11T11:05:26;14.80;;;7.53;;
20399;SDS011;10359;53.596;22.520;2022-12-11T11:08:21;14.50;;;7.90;;
20399;SDS011;10359;53.596;22.520;2022-12-11T11:14:23;12.83;;;7.50;;
20399;SDS011;10359;53.596;22.520;2022-12-11T11:17:15;13.00;;;7.33;;
20399;SDS011;10359;53.596;22.520;2022-12-11T11:20:11;13.63;;;7.40;;
20399;SDS011;10359;53.596;22.520;2022-12-11T11:23:02;9.37;;;5.53;;
20399;SDS011;10359;53.596;22.520;2022-12-11T11:25:59;13.40;;;6.87;;
20399;SDS011;10359;53.596;22.520;2022-12-11T11:28:50;14.33;;;7.87;;
20399;SDS011;10359;53.596;22.520;2022-12-11T11:31:43;12.80;;;6.77;;
20399;SDS011;10359;53.596;22.520;2022-12-11T11:34:34;14.60;;;7.80;;
20399;SDS011;10359;53.596;22.520;2022-12-11T11:37:24;10.13;;;6.87;;
20399;SDS011;10359;53.596;22.520;2022-12-11T11:40:18;14.50;;;7.60;;
20399;SDS011;10359;53.596;22.520;2022-12-11T11:43:15;13.27;;;7.60;;
20399;SDS011;10359;53.596;22.520;2022-12-11T11:46:10;9.97;;;5.60;;
20399;SDS011;10359;53.596;22.520;2022-12-11T11:49:03;15.07;;;7.53;;
20399;SDS011;10359;53.596;22.520;2022-12-11T11:52:00;10.40;;;5.80;;
20399;SDS011;10359;53.596;22.520;2022-12-11T11:55:02;9.70;;;5.30;;
20399;SDS011;10359;53.596;22.520;2022-12-11T11:57:57;10.03;;;5.70;;
20399;SDS011;10359;53.596;22.520;2022-12-11T12:00:52;13.03;;;6.07;;
20399;SDS011;10359;53.596;22.520;2022-12-11T12:03:41;13.73;;;7.03;;
20399;SDS011;10359;53.596;22.520;2022-12-11T12:09:57;10.57;;;5.60;;
20399;SDS011;10359;53.596;22.520;2022-12-11T12:12:57;7.07;;;5.10;;
20399;SDS011;10359;53.596;22.520;2022-12-11T12:16:15;8.93;;;5.20;;
20399;SDS011;10359;53.596;22.520;2022-12-11T12:19:42;6.83;;;4.20;;
20399;SDS011;10359;53.596;22.520;2022-12-11T12:22:44;9.03;;;3.90;;
20399;SDS011;10359;53.596;22.520;2022-12-11T12:25:46;10.13;;;6.10;;
20399;SDS011;10359;53.596;22.520;2022-12-11T12:28:42;11.93;;;6.67;;
20399;SDS011;10359;53.596;22.520;2022-12-11T12:31:44;7.03;;;5.43;;
20399;SDS011;10359;53.596;22.520;2022-12-11T12:34:50;8.83;;;5.33;;
20399;SDS011;10359;53.596;22.520;2022-12-11T12:37:51;9.30;;;5.47;;
20399;SDS011;10359;53.596;22.520;2022-12-11T12:40:50;8.90;;;5.43;;
20399;SDS011;10359;53.596;22.520;2022-12-11T12:43:51;7.93;;;5.20;;
20399;SDS011;10359;53.596;22.520;2022-12-11T12:46:55;8.63;;;5.73;;
20399;SDS011;10359;53.596;22.520;2022-12-11T12:49:48;8.87;;;5.20;;
20399;SDS011;10359;53.596;22.520;2022-12-11T12:52:39;9.57;;;4.97;;
20399;SDS011;10359;53.596;22.520;2022-12-11T12:55:30;8.73;;;4.97;;
20399;SDS011;10359;53.596;22.520;2022-12-11T12:58:26;9.33;;;5.53;;
20399;SDS011;10359;53.596;22.520;2022-12-11T13:01:18;8.53;;;4.70;;
20399;SDS011;10359;53.596;22.520;2022-12-11T13:04:22;8.00;;;4.17;;
20399;SDS011;10359;53.596;22.520;2022-12-11T13:07:46;7.93;;;4.80;;
20399;SDS011;10359;53.596;22.520;2022-12-11T13:10:40;7.27;;;3.83;;
20399;SDS011;10359;53.596;22.520;2022-12-11T13:13:35;6.43;;;4.63;;
20399;SDS011;10359;53.596;22.520;2022-12-11T13:16:26;7.53;;;5.40;;
20399;SDS011;10359;53.596;22.520;2022-12-11T13:19:26;6.57;;;4.27;;
20399;SDS011;10359;53.596;22.520;2022-12-11T13:22:26;6.03;;;3.43;;
20399;SDS011;10359;53.596;22.520;2022-12-11T13:25:18;4.37;;;2.77;;
20399;SDS011;10359;53.596;22.520;2022-12-11T13:28:19;5.90;;;3.53;;
20399;SDS011;10359;53.596;22.520;2022-12-11T13:31:32;9.40;;;4.77;;
20399;SDS011;10359;53.596;22.520;2022-12-11T13:34:23;3.93;;;3.27;;
20399;SDS011;10359;53.596;22.520;2022-12-11T13:37:20;5.63;;;3.10;;
20399;SDS011;10359;53.596;22.520;2022-12-11T13:40:16;7.67;;;4.60;;
20399;SDS011;10359;53.596;22.520;2022-12-11T13:43:14;7.93;;;5.13;;
20399;SDS011;10359;53.596;22.520;2022-12-11T13:46:08;3.30;;;2.60;;
20399;SDS011;10359;53.596;22.520;2022-12-11T13:49:04;4.47;;;2.67;;
20399;SDS011;10359;53.596;22.520;2022-12-11T13:51:56;6.53;;;4.50;;
20399;SDS011;10359;53.596;22.520;2022-12-11T13:54:47;7.07;;;4.00;;
20399;SDS011;10359;53.596;22.520;2022-12-11T13:57:43;5.80;;;4.00;;
20399;SDS011;10359;53.596;22.520;2022-12-11T14:00:34;6.97;;;4.87;;
20399;SDS011;10359;53.596;22.520;2022-12-11T14:03:24;8.13;;;4.57;;
20399;SDS011;10359;53.596;22.520;2022-12-11T14:06:16;3.67;;;2.93;;
20399;SDS011;10359;53.596;22.520;2022-12-11T14:09:06;5.10;;;3.60;;
20399;SDS011;10359;53.596;22.520;2022-12-11T14:11:56;4.47;;;2.17;;
20399;SDS011;10359;53.596;22.520;2022-12-11T14:14:47;6.47;;;4.17;;
20399;SDS011;10359;53.596;22.520;2022-12-11T14:17:39;6.53;;;4.50;;
20399;SDS011;10359;53.596;22.520;2022-12-11T14:20:37;3.40;;;2.23;;
20399;SDS011;10359;53.596;22.520;2022-12-11T14:23:29;4.17;;;2.60;;
20399;SDS011;10359;53.596;22.520;2022-12-11T14:26:21;3.27;;;2.73;;
20399;SDS011;10359;53.596;22.520;2022-12-11T14:29:21;5.43;;;3.40;;
20399;SDS011;10359;53.596;22.520;2022-12-11T14:32:17;4.73;;;2.87;;
20399;SDS011;10359;53.596;22.520;2022-12-11T14:35:16;5.93;;;4.20;;
20399;SDS011;10359;53.596;22.520;2022-12-11T14:38:14;2.87;;;2.43;;
20399;SDS011;10359;53.596;22.520;2022-12-11T14:41:10;6.10;;;3.47;;
20399;SDS011;10359;53.596;22.520;2022-12-11T14:44:04;5.67;;;3.73;;
20399;SDS011;10359;53.596;22.520;2022-12-11T14:47:02;7.20;;;3.00;;
20399;SDS011;10359;53.596;22.520;2022-12-11T14:49:58;3.60;;;2.07;;
20399;SDS011;10359;53.596;22.520;2022-12-11T14:52:52;2.80;;;2.07;;
20399;SDS011;10359;53.596;22.520;2022-12-11T14:55:48;4.07;;;3.10;;
20399;SDS011;10359;53.596;22.520;2022-12-11T14:58:41;3.37;;;1.67;;
20399;SDS011;10359;53.596;22.520;2022-12-11T15:01:36;4.80;;;3.60;;
20399;SDS011;10359;53.596;22.520;2022-12-11T15:04:29;4.53;;;2.80;;
20399;SDS011;10359;53.596;22.520;2022-12-11T15:07:20;3.73;;;2.37;;
20399;SDS011;10359;53.596;22.520;2022-12-11T15:10:22;7.10;;;3.37;;
20399;SDS011;10359;53.596;22.520;2022-12-11T15:13:21;5.53;;;3.10;;
20399;SDS011;10359;53.596;22.520;2022-12-11T15:16:13;3.87;;;2.83;;
20399;SDS011;10359;53.596;22.520;2022-12-11T15:19:04;4.83;;;3.00;;
20399;SDS011;10359;53.596;22.520;2022-12-11T15:21:59;4.30;;;2.83;;
20399;SDS011;10359;53.596;22.520;2022-12-11T15:24:51;6.73;;;4.03;;
20399;SDS011;10359;53.596;22.520;2022-12-11T15:27:43;3.93;;;2.17;;
20399;SDS011;10359;53.596;22.520;2022-12-11T15:30:33;5.47;;;3.47;;
20399;SDS011;10359;53.596;22.520;2022-12-11T15:33:25;3.97;;;1.87;;
20399;SDS011;10359;53.596;22.520;2022-12-11T15:36:22;2.77;;;1.67;;
20399;SDS011;10359;53.596;22.520;2022-12-11T15:39:18;3.83;;;2.50;;
20399;SDS011;10359;53.596;22.520;2022-12-11T15:42:14;6.73;;;3.60;;
20399;SDS011;10359;53.596;22.520;2022-12-11T15:45:14;3.40;;;1.90;;
20399;SDS011;10359;53.596;22.520;2022-12-11T15:48:06;4.93;;;2.43;;
20399;SDS011;10359;53.596;22.520;2022-12-11T15:51:00;5.77;;;3.57;;
20399;SDS011;10359;53.596;22.520;2022-12-11T15:53:50;3.67;;;1.37;;
20399;SDS011;10359;53.596;22.520;2022-12-11T15:56:43;6.03;;;3.30;;
20399;SDS011;10359;53.596;22.520;2022-12-11T15:59:34;2.80;;;2.37;;
20399;SDS011;10359;53.596;22.520;2022-12-11T16:02:24;2.20;;;2.00;;
20399;SDS011;10359;53.596;22.520;2022-12-11T16:05:14;2.23;;;1.77;;
20399;SDS011;10359;53.596;22.520;2022-12-11T16:08:05;4.03;;;2.20;;
20399;SDS011;10359;53.596;22.520;2022-12-11T16:10:55;5.60;;;3.07;;
20399;SDS011;10359;53.596;22.520;2022-12-11T16:13:47;4.80;;;2.63;;
20399;SDS011;10359;53.596;22.520;2022-12-11T16:16:36;2.60;;;2.10;;
20399;SDS011;10359;53.596;22.520;2022-12-11T16:19:26;5.63;;;3.10;;
20399;SDS011;10359;53.596;22.520;2022-12-11T16:22:16;3.07;;;1.63;;
20399;SDS011;10359;53.596;22.520;2022-12-11T16:25:07;2.87;;;2.50;;
20399;SDS011;10359;53.596;22.520;2022-12-11T16:27:58;1.67;;;1.53;;
20399;SDS011;10359;53.596;22.520;2022-12-11T16:30:49;6.83;;;2.57;;
20399;SDS011;10359;53.596;22.520;2022-12-11T16:33:40;4.87;;;2.90;;
20399;SDS011;10359;53.596;22.520;2022-12-11T16:36:29;3.33;;;2.57;;
20399;SDS011;10359;53.596;22.520;2022-12-11T16:39:20;4.53;;;3.13;;
20399;SDS011;10359;53.596;22.520;2022-12-11T16:42:12;2.30;;;1.53;;
20399;SDS011;10359;53.596;22.520;2022-12-11T16:45:03;4.50;;;3.07;;
20399;SDS011;10359;53.596;22.520;2022-12-11T16:47:55;6.60;;;3.53;;
20399;SDS011;10359;53.596;22.520;2022-12-11T16:50:45;4.97;;;2.23;;
20399;SDS011;10359;53.596;22.520;2022-12-11T16:53:34;4.23;;;2.70;;
20399;SDS011;10359;53.596;22.520;2022-12-11T16:56:28;5.03;;;3.20;;
20399;SDS011;10359;53.596;22.520;2022-12-11T16:59:19;3.70;;;2.77;;
20399;SDS011;10359;53.596;22.520;2022-12-11T17:02:09;5.13;;;2.30;;